sensor_id;sensor_type;location;lat;lon;timestamp;P1;durP1;ratioP1;P2;durP2;ratioP2
84523;SDS011;74765;44.538;18.668;2024-03-06T00:00:10;123.35;;;63.78;;
84523;SDS011;74765;44.538;18.668;2024-03-06T00:02:36;141.40;;;66.82;;
84523;SDS011;74765;44.538;18.668;2024-03-06T00:05:02;131.18;;;62.03;;
84523;SDS011;74765;44.538;18.668;2024-03-06T00:07:28;139.32;;;65.88;;
84523;SDS011;74765;44.538;18.668;2024-03-06T00:09:54;121.90;;;58.20;;
84523;SDS011;74765;44.538;18.668;2024-03-06T00:12:19;111.60;;;53.72;;
84523;SDS011;74765;44.538;18.668;2024-03-06T00:14:45;125.05;;;58.33;;
84523;SDS011;74765;44.538;18.668;2024-03-06T00:17:11;120.05;;;59.88;;
84523;SDS011;74765;44.538;18.668;2024-03-06T00:19:36;127.50;;;60.50;;
84523;SDS011;74765;44.538;18.668;2024-03-06T00:22:02;127.03;;;60.25;;
84523;SDS011;74765;44.538;18.668;2024-03-06T00:24:28;120.85;;;56.92;;
84523;SDS011;74765;44.538;18.668;2024-03-06T00:26:54;128.10;;;59.70;;
84523;SDS011;74765;44.538;18.668;2024-03-06T00:29:20;87.13;;;46.60;;
84523;SDS011;74765;44.538;18.668;2024-03-06T00:31:46;95.75;;;46.70;;
84523;SDS011;74765;44.538;18.668;2024-03-06T00:34:12;88.57;;;45.00;;
84523;SDS011;74765;44.538;18.668;2024-03-06T00:36:42;84.47;;;45.17;;
84523;SDS011;74765;44.538;18.668;2024-03-06T00:39:09;72.20;;;40.42;;
84523;SDS011;74765;44.538;18.668;2024-03-06T00:41:35;82.30;;;43.05;;
84523;SDS011;74765;44.538;18.668;2024-03-06T00:44:01;84.55;;;43.00;;
84523;SDS011;74765;44.538;18.668;2024-03-06T00:46:27;71.63;;;37.50;;
84523;SDS011;74765;44.538;18.668;2024-03-06T00:48:53;65.75;;;34.05;;
84523;SDS011;74765;44.538;18.668;2024-03-06T00:51:19;66.28;;;34.38;;
84523;SDS011;74765;44.538;18.668;2024-03-06T00:53:45;64.47;;;35.53;;
84523;SDS011;74765;44.538;18.668;2024-03-06T00:56:11;71.22;;;37.58;;
84523;SDS011;74765;44.538;18.668;2024-03-06T00:58:36;80.50;;;40.70;;
84523;SDS011;74765;44.538;18.668;2024-03-06T01:01:02;99.63;;;47.42;;
84523;SDS011;74765;44.538;18.668;2024-03-06T01:03:28;77.72;;;43.08;;
84523;SDS011;74765;44.538;18.668;2024-03-06T01:05:54;85.30;;;42.30;;
84523;SDS011;74765;44.538;18.668;2024-03-06T01:08:21;98.22;;;47.28;;
84523;SDS011;74765;44.538;18.668;2024-03-06T01:13:21;89.10;;;45.53;;
84523;SDS011;74765;44.538;18.668;2024-03-06T01:15:47;106.80;;;50.33;;
84523;SDS011;74765;44.538;18.668;2024-03-06T01:18:13;90.40;;;48.38;;
84523;SDS011;74765;44.538;18.668;2024-03-06T01:20:38;102.75;;;50.65;;
84523;SDS011;74765;44.538;18.668;2024-03-06T01:23:05;114.00;;;54.25;;
84523;SDS011;74765;44.538;18.668;2024-03-06T01:25:30;113.80;;;54.53;;
84523;SDS011;74765;44.538;18.668;2024-03-06T01:27:56;107.22;;;53.50;;
84523;SDS011;74765;44.538;18.668;2024-03-06T01:30:22;115.95;;;55.13;;
84523;SDS011;74765;44.538;18.668;2024-03-06T01:32:47;129.88;;;60.60;;
84523;SDS011;74765;44.538;18.668;2024-03-06T01:35:13;98.50;;;50.83;;
84523;SDS011;74765;44.538;18.668;2024-03-06T01:37:39;120.20;;;56.90;;
84523;SDS011;74765;44.538;18.668;2024-03-06T01:40:06;118.10;;;59.10;;
84523;SDS011;74765;44.538;18.668;2024-03-06T01:42:34;124.18;;;57.78;;
84523;SDS011;74765;44.538;18.668;2024-03-06T01:44:59;131.23;;;62.70;;
84523;SDS011;74765;44.538;18.668;2024-03-06T01:47:25;123.80;;;61.45;;
84523;SDS011;74765;44.538;18.668;2024-03-06T01:49:51;106.97;;;53.85;;
84523;SDS011;74765;44.538;18.668;2024-03-06T01:52:16;93.32;;;49.58;;
84523;SDS011;74765;44.538;18.668;2024-03-06T01:54:44;83.70;;;43.88;;
84523;SDS011;74765;44.538;18.668;2024-03-06T01:57:11;91.47;;;46.42;;
84523;SDS011;74765;44.538;18.668;2024-03-06T01:59:41;90.80;;;45.30;;
84523;SDS011;74765;44.538;18.668;2024-03-06T02:02:07;89.95;;;44.47;;
84523;SDS011;74765;44.538;18.668;2024-03-06T02:04:36;95.03;;;46.63;;
84523;SDS011;74765;44.538;18.668;2024-03-06T02:07:08;120.43;;;54.75;;
84523;SDS011;74765;44.538;18.668;2024-03-06T02:09:37;105.18;;;50.55;;
84523;SDS011;74765;44.538;18.668;2024-03-06T02:12:04;101.05;;;48.65;;
84523;SDS011;74765;44.538;18.668;2024-03-06T02:14:34;63.00;;;33.10;;
84523;SDS011;74765;44.538;18.668;2024-03-06T02:17:01;63.83;;;34.50;;
84523;SDS011;74765;44.538;18.668;2024-03-06T02:19:40;55.63;;;29.10;;
84523;SDS011;74765;44.538;18.668;2024-03-06T02:22:07;73.97;;;38.15;;
84523;SDS011;74765;44.538;18.668;2024-03-06T02:24:33;77.50;;;39.75;;
84523;SDS011;74765;44.538;18.668;2024-03-06T02:27:00;84.35;;;42.35;;
84523;SDS011;74765;44.538;18.668;2024-03-06T02:29:25;71.78;;;38.75;;
84523;SDS011;74765;44.538;18.668;2024-03-06T02:31:51;70.40;;;37.50;;
84523;SDS011;74765;44.538;18.668;2024-03-06T02:34:17;63.20;;;33.63;;
84523;SDS011;74765;44.538;18.668;2024-03-06T02:36:43;62.63;;;36.22;;
84523;SDS011;74765;44.538;18.668;2024-03-06T02:39:09;83.65;;;43.50;;
84523;SDS011;74765;44.538;18.668;2024-03-06T02:41:35;87.55;;;45.50;;
84523;SDS011;74765;44.538;18.668;2024-03-06T02:44:01;80.25;;;42.50;;
84523;SDS011;74765;44.538;18.668;2024-03-06T02:46:27;87.40;;;44.78;;
84523;SDS011;74765;44.538;18.668;2024-03-06T02:48:54;81.68;;;44.10;;
84523;SDS011;74765;44.538;18.668;2024-03-06T02:51:20;88.80;;;43.53;;
84523;SDS011;74765;44.538;18.668;2024-03-06T02:53:46;87.38;;;43.72;;
84523;SDS011;74765;44.538;18.668;2024-03-06T02:56:17;90.55;;;48.88;;
84523;SDS011;74765;44.538;18.668;2024-03-06T02:58:43;65.43;;;34.97;;
84523;SDS011;74765;44.538;18.668;2024-03-06T03:01:10;77.15;;;39.78;;
84523;SDS011;74765;44.538;18.668;2024-03-06T03:03:36;74.70;;;40.72;;
84523;SDS011;74765;44.538;18.668;2024-03-06T03:06:01;60.25;;;32.60;;
84523;SDS011;74765;44.538;18.668;2024-03-06T03:08:28;53.15;;;30.63;;
84523;SDS011;74765;44.538;18.668;2024-03-06T03:10:53;63.25;;;35.00;;
84523;SDS011;74765;44.538;18.668;2024-03-06T03:13:20;66.50;;;36.63;;
84523;SDS011;74765;44.538;18.668;2024-03-06T03:15:47;64.63;;;35.17;;
84523;SDS011;74765;44.538;18.668;2024-03-06T03:18:13;57.65;;;33.42;;
84523;SDS011;74765;44.538;18.668;2024-03-06T03:20:39;69.80;;;36.90;;
84523;SDS011;74765;44.538;18.668;2024-03-06T03:23:04;65.40;;;35.80;;
84523;SDS011;74765;44.538;18.668;2024-03-06T03:25:31;64.97;;;34.97;;
84523;SDS011;74765;44.538;18.668;2024-03-06T03:27:58;71.55;;;39.38;;
84523;SDS011;74765;44.538;18.668;2024-03-06T03:30:25;70.63;;;39.05;;
84523;SDS011;74765;44.538;18.668;2024-03-06T03:32:51;76.53;;;42.83;;
84523;SDS011;74765;44.538;18.668;2024-03-06T03:35:16;75.72;;;42.75;;
84523;SDS011;74765;44.538;18.668;2024-03-06T03:37:46;82.20;;;41.72;;
84523;SDS011;74765;44.538;18.668;2024-03-06T03:40:11;79.10;;;43.22;;
84523;SDS011;74765;44.538;18.668;2024-03-06T03:42:38;81.55;;;40.92;;
84523;SDS011;74765;44.538;18.668;2024-03-06T03:45:04;76.32;;;43.22;;
84523;SDS011;74765;44.538;18.668;2024-03-06T03:47:30;65.60;;;36.22;;
84523;SDS011;74765;44.538;18.668;2024-03-06T03:49:55;66.25;;;34.70;;
84523;SDS011;74765;44.538;18.668;2024-03-06T03:52:21;59.78;;;32.25;;
84523;SDS011;74765;44.538;18.668;2024-03-06T03:54:47;59.05;;;34.03;;
84523;SDS011;74765;44.538;18.668;2024-03-06T03:57:13;63.45;;;35.35;;
84523;SDS011;74765;44.538;18.668;2024-03-06T03:59:39;72.85;;;39.05;;
84523;SDS011;74765;44.538;18.668;2024-03-06T04:02:06;59.40;;;31.85;;
84523;SDS011;74765;44.538;18.668;2024-03-06T04:04:33;58.78;;;33.05;;
84523;SDS011;74765;44.538;18.668;2024-03-06T04:06:59;56.90;;;32.67;;
84523;SDS011;74765;44.538;18.668;2024-03-06T04:09:29;59.97;;;35.13;;
84523;SDS011;74765;44.538;18.668;2024-03-06T04:11:55;64.88;;;34.83;;
84523;SDS011;74765;44.538;18.668;2024-03-06T04:14:21;61.22;;;32.20;;
84523;SDS011;74765;44.538;18.668;2024-03-06T04:16:47;60.47;;;33.38;;
84523;SDS011;74765;44.538;18.668;2024-03-06T04:19:13;60.75;;;33.78;;
84523;SDS011;74765;44.538;18.668;2024-03-06T04:21:42;56.80;;;33.97;;
84523;SDS011;74765;44.538;18.668;2024-03-06T04:24:08;56.95;;;32.40;;
84523;SDS011;74765;44.538;18.668;2024-03-06T04:26:34;63.03;;;34.50;;
84523;SDS011;74765;44.538;18.668;2024-03-06T04:29:00;65.22;;;34.08;;
84523;SDS011;74765;44.538;18.668;2024-03-06T04:31:25;70.20;;;37.17;;
84523;SDS011;74765;44.538;18.668;2024-03-06T04:33:51;65.07;;;35.78;;
84523;SDS011;74765;44.538;18.668;2024-03-06T04:36:17;66.85;;;37.55;;
84523;SDS011;74765;44.538;18.668;2024-03-06T04:38:42;68.20;;;34.45;;
84523;SDS011;74765;44.538;18.668;2024-03-06T04:41:08;67.53;;;35.92;;
84523;SDS011;74765;44.538;18.668;2024-03-06T04:43:35;65.25;;;35.85;;
84523;SDS011;74765;44.538;18.668;2024-03-06T04:46:01;63.78;;;35.33;;
84523;SDS011;74765;44.538;18.668;2024-03-06T04:48:27;67.18;;;35.30;;
84523;SDS011;74765;44.538;18.668;2024-03-06T04:50:53;58.85;;;34.05;;
84523;SDS011;74765;44.538;18.668;2024-03-06T04:53:19;74.50;;;36.03;;
84523;SDS011;74765;44.538;18.668;2024-03-06T04:55:47;71.65;;;36.60;;
84523;SDS011;74765;44.538;18.668;2024-03-06T04:58:13;78.05;;;40.13;;
84523;SDS011;74765;44.538;18.668;2024-03-06T05:00:39;82.47;;;41.58;;
84523;SDS011;74765;44.538;18.668;2024-03-06T05:03:05;76.38;;;40.60;;
84523;SDS011;74765;44.538;18.668;2024-03-06T05:05:30;69.50;;;39.13;;
84523;SDS011;74765;44.538;18.668;2024-03-06T05:07:57;79.03;;;41.33;;
84523;SDS011;74765;44.538;18.668;2024-03-06T05:10:23;77.82;;;42.15;;
84523;SDS011;74765;44.538;18.668;2024-03-06T05:12:49;82.93;;;44.92;;
84523;SDS011;74765;44.538;18.668;2024-03-06T05:15:15;83.22;;;46.78;;
84523;SDS011;74765;44.538;18.668;2024-03-06T05:17:41;81.55;;;44.15;;
84523;SDS011;74765;44.538;18.668;2024-03-06T05:20:07;72.85;;;39.80;;
84523;SDS011;74765;44.538;18.668;2024-03-06T05:22:33;75.18;;;38.95;;
84523;SDS011;74765;44.538;18.668;2024-03-06T05:24:59;82.07;;;42.40;;
84523;SDS011;74765;44.538;18.668;2024-03-06T05:27:25;85.97;;;44.63;;
84523;SDS011;74765;44.538;18.668;2024-03-06T05:29:51;77.70;;;41.40;;
84523;SDS011;74765;44.538;18.668;2024-03-06T05:32:17;72.18;;;40.67;;
84523;SDS011;74765;44.538;18.668;2024-03-06T05:34:43;77.57;;;40.47;;
84523;SDS011;74765;44.538;18.668;2024-03-06T05:37:09;78.03;;;39.60;;
84523;SDS011;74765;44.538;18.668;2024-03-06T05:39:35;70.40;;;36.65;;
84523;SDS011;74765;44.538;18.668;2024-03-06T05:42:03;66.30;;;35.65;;
84523;SDS011;74765;44.538;18.668;2024-03-06T05:44:32;63.65;;;33.75;;
84523;SDS011;74765;44.538;18.668;2024-03-06T05:46:59;63.65;;;35.90;;
84523;SDS011;74765;44.538;18.668;2024-03-06T05:51:55;71.20;;;38.60;;
84523;SDS011;74765;44.538;18.668;2024-03-06T05:54:21;69.95;;;37.80;;
84523;SDS011;74765;44.538;18.668;2024-03-06T05:56:47;61.22;;;35.65;;
84523;SDS011;74765;44.538;18.668;2024-03-06T05:59:15;81.95;;;44.10;;
84523;SDS011;74765;44.538;18.668;2024-03-06T06:01:41;78.15;;;40.35;;
84523;SDS011;74765;44.538;18.668;2024-03-06T06:04:07;88.63;;;47.03;;
84523;SDS011;74765;44.538;18.668;2024-03-06T06:06:34;87.43;;;46.00;;
84523;SDS011;74765;44.538;18.668;2024-03-06T06:09:00;79.15;;;41.92;;
84523;SDS011;74765;44.538;18.668;2024-03-06T06:11:30;60.58;;;33.67;;
84523;SDS011;74765;44.538;18.668;2024-03-06T06:13:56;59.90;;;34.33;;
84523;SDS011;74765;44.538;18.668;2024-03-06T06:16:21;60.83;;;34.33;;
84523;SDS011;74765;44.538;18.668;2024-03-06T06:18:47;63.78;;;34.92;;
84523;SDS011;74765;44.538;18.668;2024-03-06T06:21:13;56.17;;;32.35;;
84523;SDS011;74765;44.538;18.668;2024-03-06T06:23:41;71.57;;;38.10;;
84523;SDS011;74765;44.538;18.668;2024-03-06T06:26:08;77.88;;;41.78;;
84523;SDS011;74765;44.538;18.668;2024-03-06T06:28:36;86.15;;;47.88;;
84523;SDS011;74765;44.538;18.668;2024-03-06T06:31:03;70.53;;;38.10;;
84523;SDS011;74765;44.538;18.668;2024-03-06T06:33:29;66.40;;;38.88;;
84523;SDS011;74765;44.538;18.668;2024-03-06T06:35:56;66.10;;;40.10;;
84523;SDS011;74765;44.538;18.668;2024-03-06T06:38:22;64.40;;;38.30;;
84523;SDS011;74765;44.538;18.668;2024-03-06T06:40:48;64.68;;;37.42;;
84523;SDS011;74765;44.538;18.668;2024-03-06T06:43:16;63.15;;;38.63;;
84523;SDS011;74765;44.538;18.668;2024-03-06T06:45:41;74.15;;;41.42;;
84523;SDS011;74765;44.538;18.668;2024-03-06T06:48:07;64.70;;;38.03;;
84523;SDS011;74765;44.538;18.668;2024-03-06T06:50:34;57.95;;;35.00;;
84523;SDS011;74765;44.538;18.668;2024-03-06T06:53:00;65.35;;;37.92;;
84523;SDS011;74765;44.538;18.668;2024-03-06T06:55:26;56.00;;;33.30;;
84523;SDS011;74765;44.538;18.668;2024-03-06T06:57:52;59.03;;;35.10;;
84523;SDS011;74765;44.538;18.668;2024-03-06T07:00:18;56.20;;;34.55;;
84523;SDS011;74765;44.538;18.668;2024-03-06T07:02:44;52.85;;;34.53;;
84523;SDS011;74765;44.538;18.668;2024-03-06T07:05:13;58.13;;;34.03;;
84523;SDS011;74765;44.538;18.668;2024-03-06T07:07:39;52.83;;;31.85;;
84523;SDS011;74765;44.538;18.668;2024-03-06T07:10:05;51.95;;;31.00;;
84523;SDS011;74765;44.538;18.668;2024-03-06T07:12:32;49.53;;;28.35;;
84523;SDS011;74765;44.538;18.668;2024-03-06T07:14:58;40.40;;;27.20;;
84523;SDS011;74765;44.538;18.668;2024-03-06T07:17:24;57.05;;;33.90;;
84523;SDS011;74765;44.538;18.668;2024-03-06T07:19:51;56.63;;;34.58;;
84523;SDS011;74765;44.538;18.668;2024-03-06T07:22:22;57.50;;;35.45;;
84523;SDS011;74765;44.538;18.668;2024-03-06T07:24:48;59.13;;;36.15;;
84523;SDS011;74765;44.538;18.668;2024-03-06T07:27:17;62.65;;;38.63;;
84523;SDS011;74765;44.538;18.668;2024-03-06T07:29:43;51.80;;;34.25;;
84523;SDS011;74765;44.538;18.668;2024-03-06T07:32:09;58.95;;;34.95;;
84523;SDS011;74765;44.538;18.668;2024-03-06T07:34:36;57.20;;;34.50;;
84523;SDS011;74765;44.538;18.668;2024-03-06T07:37:01;46.58;;;29.45;;
84523;SDS011;74765;44.538;18.668;2024-03-06T07:39:27;50.53;;;33.15;;
84523;SDS011;74765;44.538;18.668;2024-03-06T07:41:53;43.75;;;28.27;;
84523;SDS011;74765;44.538;18.668;2024-03-06T07:44:19;48.70;;;30.45;;
84523;SDS011;74765;44.538;18.668;2024-03-06T07:46:45;45.08;;;30.23;;
84523;SDS011;74765;44.538;18.668;2024-03-06T07:49:11;45.80;;;29.42;;
84523;SDS011;74765;44.538;18.668;2024-03-06T07:51:37;36.50;;;24.40;;
84523;SDS011;74765;44.538;18.668;2024-03-06T07:54:03;40.38;;;24.90;;
84523;SDS011;74765;44.538;18.668;2024-03-06T07:56:32;41.28;;;27.92;;
84523;SDS011;74765;44.538;18.668;2024-03-06T07:58:59;45.20;;;30.40;;
84523;SDS011;74765;44.538;18.668;2024-03-06T08:01:25;51.58;;;32.25;;
84523;SDS011;74765;44.538;18.668;2024-03-06T08:03:54;47.53;;;31.88;;
84523;SDS011;74765;44.538;18.668;2024-03-06T08:06:20;53.55;;;33.88;;
84523;SDS011;74765;44.538;18.668;2024-03-06T08:08:46;50.92;;;34.05;;
84523;SDS011;74765;44.538;18.668;2024-03-06T08:11:12;52.70;;;32.63;;
84523;SDS011;74765;44.538;18.668;2024-03-06T08:13:39;52.03;;;34.78;;
84523;SDS011;74765;44.538;18.668;2024-03-06T08:16:07;60.38;;;33.80;;
84523;SDS011;74765;44.538;18.668;2024-03-06T08:18:34;50.13;;;31.75;;
84523;SDS011;74765;44.538;18.668;2024-03-06T08:21:00;56.13;;;35.38;;
84523;SDS011;74765;44.538;18.668;2024-03-06T08:23:27;65.30;;;34.42;;
84523;SDS011;74765;44.538;18.668;2024-03-06T08:25:56;50.05;;;33.88;;
84523;SDS011;74765;44.538;18.668;2024-03-06T08:28:42;59.17;;;36.05;;
84523;SDS011;74765;44.538;18.668;2024-03-06T08:31:08;60.22;;;35.75;;
84523;SDS011;74765;44.538;18.668;2024-03-06T08:33:34;52.63;;;35.38;;
84523;SDS011;74765;44.538;18.668;2024-03-06T08:36:00;49.78;;;34.90;;
84523;SDS011;74765;44.538;18.668;2024-03-06T08:38:26;53.45;;;35.00;;
84523;SDS011;74765;44.538;18.668;2024-03-06T08:40:52;52.20;;;34.67;;
84523;SDS011;74765;44.538;18.668;2024-03-06T08:43:18;51.17;;;34.88;;
84523;SDS011;74765;44.538;18.668;2024-03-06T08:45:45;51.50;;;35.35;;
84523;SDS011;74765;44.538;18.668;2024-03-06T08:48:11;53.03;;;33.83;;
84523;SDS011;74765;44.538;18.668;2024-03-06T08:50:37;54.42;;;35.58;;
84523;SDS011;74765;44.538;18.668;2024-03-06T08:53:03;57.03;;;40.40;;
84523;SDS011;74765;44.538;18.668;2024-03-06T08:55:29;51.97;;;34.22;;
84523;SDS011;74765;44.538;18.668;2024-03-06T08:57:55;60.78;;;38.35;;
84523;SDS011;74765;44.538;18.668;2024-03-06T09:00:21;52.95;;;37.45;;
84523;SDS011;74765;44.538;18.668;2024-03-06T09:02:52;57.38;;;36.90;;
84523;SDS011;74765;44.538;18.668;2024-03-06T09:05:18;50.67;;;35.28;;
84523;SDS011;74765;44.538;18.668;2024-03-06T09:07:45;51.08;;;34.90;;
84523;SDS011;74765;44.538;18.668;2024-03-06T09:10:12;50.45;;;34.58;;
84523;SDS011;74765;44.538;18.668;2024-03-06T09:12:38;49.22;;;34.33;;
84523;SDS011;74765;44.538;18.668;2024-03-06T09:15:04;56.45;;;36.00;;
84523;SDS011;74765;44.538;18.668;2024-03-06T09:17:32;50.25;;;35.05;;
84523;SDS011;74765;44.538;18.668;2024-03-06T09:19:58;49.63;;;34.72;;
84523;SDS011;74765;44.538;18.668;2024-03-06T09:22:24;49.53;;;33.60;;
84523;SDS011;74765;44.538;18.668;2024-03-06T09:24:50;44.55;;;31.60;;
84523;SDS011;74765;44.538;18.668;2024-03-06T09:27:19;46.90;;;31.25;;
84523;SDS011;74765;44.538;18.668;2024-03-06T09:29:44;50.65;;;33.00;;
84523;SDS011;74765;44.538;18.668;2024-03-06T09:32:12;48.15;;;31.95;;
84523;SDS011;74765;44.538;18.668;2024-03-06T09:34:41;50.15;;;33.50;;
84523;SDS011;74765;44.538;18.668;2024-03-06T09:37:07;50.13;;;34.33;;
84523;SDS011;74765;44.538;18.668;2024-03-06T09:39:37;46.13;;;32.80;;
84523;SDS011;74765;44.538;18.668;2024-03-06T09:42:13;43.20;;;30.30;;
84523;SDS011;74765;44.538;18.668;2024-03-06T09:44:40;40.65;;;29.48;;
84523;SDS011;74765;44.538;18.668;2024-03-06T09:47:07;43.10;;;29.17;;
84523;SDS011;74765;44.538;18.668;2024-03-06T09:49:38;40.58;;;29.75;;
84523;SDS011;74765;44.538;18.668;2024-03-06T09:52:08;37.90;;;28.52;;
84523;SDS011;74765;44.538;18.668;2024-03-06T09:54:37;38.10;;;28.27;;
84523;SDS011;74765;44.538;18.668;2024-03-06T09:57:04;37.58;;;30.05;;
84523;SDS011;74765;44.538;18.668;2024-03-06T09:59:31;40.90;;;28.95;;
84523;SDS011;74765;44.538;18.668;2024-03-06T10:01:57;38.35;;;27.50;;
84523;SDS011;74765;44.538;18.668;2024-03-06T10:04:28;38.22;;;25.88;;
84523;SDS011;74765;44.538;18.668;2024-03-06T10:06:57;33.45;;;22.92;;
84523;SDS011;74765;44.538;18.668;2024-03-06T10:09:25;35.42;;;24.15;;
84523;SDS011;74765;44.538;18.668;2024-03-06T10:11:52;33.40;;;23.27;;
84523;SDS011;74765;44.538;18.668;2024-03-06T10:14:19;29.15;;;21.60;;
84523;SDS011;74765;44.538;18.668;2024-03-06T10:16:52;32.60;;;22.45;;
84523;SDS011;74765;44.538;18.668;2024-03-06T10:19:18;30.27;;;22.73;;
84523;SDS011;74765;44.538;18.668;2024-03-06T10:21:47;29.15;;;21.42;;
84523;SDS011;74765;44.538;18.668;2024-03-06T10:24:18;34.80;;;21.23;;
84523;SDS011;74765;44.538;18.668;2024-03-06T10:26:51;30.40;;;20.55;;
84523;SDS011;74765;44.538;18.668;2024-03-06T10:29:20;24.75;;;17.85;;
84523;SDS011;74765;44.538;18.668;2024-03-06T10:31:48;27.02;;;18.75;;
84523;SDS011;74765;44.538;18.668;2024-03-06T10:34:19;31.15;;;19.58;;
84523;SDS011;74765;44.538;18.668;2024-03-06T10:36:56;27.88;;;19.30;;
84523;SDS011;74765;44.538;18.668;2024-03-06T10:39:26;30.23;;;19.90;;
84523;SDS011;74765;44.538;18.668;2024-03-06T10:41:56;25.20;;;18.10;;
84523;SDS011;74765;44.538;18.668;2024-03-06T10:44:26;19.67;;;15.80;;
84523;SDS011;74765;44.538;18.668;2024-03-06T10:49:47;29.17;;;17.05;;
84523;SDS011;74765;44.538;18.668;2024-03-06T10:52:24;25.60;;;16.90;;
84523;SDS011;74765;44.538;18.668;2024-03-06T10:54:52;36.40;;;20.92;;
84523;SDS011;74765;44.538;18.668;2024-03-06T10:57:19;23.38;;;16.98;;
84523;SDS011;74765;44.538;18.668;2024-03-06T10:59:48;28.63;;;17.27;;
84523;SDS011;74765;44.538;18.668;2024-03-06T11:02:21;25.63;;;16.52;;
84523;SDS011;74765;44.538;18.668;2024-03-06T11:04:50;27.52;;;17.75;;
84523;SDS011;74765;44.538;18.668;2024-03-06T11:09:45;25.70;;;16.45;;
84523;SDS011;74765;44.538;18.668;2024-03-06T11:12:32;26.40;;;15.25;;
84523;SDS011;74765;44.538;18.668;2024-03-06T11:15:24;23.95;;;16.88;;
84523;SDS011;74765;44.538;18.668;2024-03-06T11:24:11;19.55;;;12.15;;
84523;SDS011;74765;44.538;18.668;2024-03-06T11:27:06;17.48;;;10.98;;
84523;SDS011;74765;44.538;18.668;2024-03-06T11:30:06;17.52;;;10.95;;
84523;SDS011;74765;44.538;18.668;2024-03-06T11:32:58;26.17;;;14.00;;
84523;SDS011;74765;44.538;18.668;2024-03-06T11:35:28;22.27;;;11.07;;
84523;SDS011;74765;44.538;18.668;2024-03-06T11:38:03;21.23;;;12.90;;
84523;SDS011;74765;44.538;18.668;2024-03-06T11:43:29;28.13;;;14.70;;
84523;SDS011;74765;44.538;18.668;2024-03-06T11:46:08;25.63;;;16.40;;
84523;SDS011;74765;44.538;18.668;2024-03-06T11:48:35;22.80;;;16.42;;
84523;SDS011;74765;44.538;18.668;2024-03-06T11:51:05;26.95;;;15.70;;
84523;SDS011;74765;44.538;18.668;2024-03-06T11:53:31;29.98;;;18.52;;
84523;SDS011;74765;44.538;18.668;2024-03-06T11:55:59;30.27;;;17.95;;
84523;SDS011;74765;44.538;18.668;2024-03-06T11:58:25;52.70;;;37.78;;
84523;SDS011;74765;44.538;18.668;2024-03-06T12:00:51;26.77;;;17.83;;
84523;SDS011;74765;44.538;18.668;2024-03-06T12:03:19;26.13;;;17.02;;
84523;SDS011;74765;44.538;18.668;2024-03-06T12:05:50;32.83;;;18.88;;
84523;SDS011;74765;44.538;18.668;2024-03-06T12:08:16;28.77;;;16.65;;
84523;SDS011;74765;44.538;18.668;2024-03-06T12:10:45;29.33;;;17.17;;
84523;SDS011;74765;44.538;18.668;2024-03-06T12:13:13;24.60;;;15.90;;
84523;SDS011;74765;44.538;18.668;2024-03-06T12:15:42;23.20;;;15.73;;
84523;SDS011;74765;44.538;18.668;2024-03-06T12:18:11;24.90;;;15.77;;
84523;SDS011;74765;44.538;18.668;2024-03-06T12:20:42;26.50;;;14.00;;
84523;SDS011;74765;44.538;18.668;2024-03-06T12:23:32;22.85;;;13.50;;
84523;SDS011;74765;44.538;18.668;2024-03-06T12:28:39;28.15;;;15.60;;
84523;SDS011;74765;44.538;18.668;2024-03-06T12:31:11;26.30;;;14.50;;
84523;SDS011;74765;44.538;18.668;2024-03-06T12:33:56;20.02;;;11.30;;
84523;SDS011;74765;44.538;18.668;2024-03-06T12:36:26;19.67;;;11.82;;
84523;SDS011;74765;44.538;18.668;2024-03-06T12:38:55;22.33;;;11.70;;
84523;SDS011;74765;44.538;18.668;2024-03-06T12:41:21;15.50;;;11.18;;
84523;SDS011;74765;44.538;18.668;2024-03-06T12:43:47;19.55;;;13.55;;
84523;SDS011;74765;44.538;18.668;2024-03-06T12:46:13;18.77;;;12.48;;
84523;SDS011;74765;44.538;18.668;2024-03-06T12:48:39;21.33;;;11.30;;
84523;SDS011;74765;44.538;18.668;2024-03-06T12:51:05;23.70;;;12.35;;
84523;SDS011;74765;44.538;18.668;2024-03-06T12:53:31;21.75;;;13.00;;
84523;SDS011;74765;44.538;18.668;2024-03-06T12:55:58;19.65;;;12.88;;
84523;SDS011;74765;44.538;18.668;2024-03-06T12:58:24;21.65;;;14.13;;
84523;SDS011;74765;44.538;18.668;2024-03-06T13:00:50;21.85;;;12.93;;
84523;SDS011;74765;44.538;18.668;2024-03-06T13:03:17;27.48;;;16.40;;
84523;SDS011;74765;44.538;18.668;2024-03-06T13:05:49;26.90;;;16.77;;
84523;SDS011;74765;44.538;18.668;2024-03-06T13:08:15;29.77;;;16.85;;
84523;SDS011;74765;44.538;18.668;2024-03-06T13:10:42;27.00;;;16.25;;
84523;SDS011;74765;44.538;18.668;2024-03-06T13:13:08;25.23;;;16.25;;
84523;SDS011;74765;44.538;18.668;2024-03-06T13:15:34;28.50;;;15.50;;
84523;SDS011;74765;44.538;18.668;2024-03-06T13:18:00;30.02;;;16.02;;
84523;SDS011;74765;44.538;18.668;2024-03-06T13:20:32;26.00;;;15.75;;
84523;SDS011;74765;44.538;18.668;2024-03-06T13:22:59;29.23;;;14.82;;
84523;SDS011;74765;44.538;18.668;2024-03-06T13:25:25;25.23;;;15.45;;
84523;SDS011;74765;44.538;18.668;2024-03-06T13:27:51;24.40;;;14.25;;
84523;SDS011;74765;44.538;18.668;2024-03-06T13:30:17;21.83;;;14.63;;
84523;SDS011;74765;44.538;18.668;2024-03-06T13:32:43;26.13;;;14.75;;
84523;SDS011;74765;44.538;18.668;2024-03-06T13:35:11;21.35;;;13.93;;
84523;SDS011;74765;44.538;18.668;2024-03-06T13:37:39;22.80;;;12.80;;
84523;SDS011;74765;44.538;18.668;2024-03-06T13:40:09;21.13;;;13.48;;
84523;SDS011;74765;44.538;18.668;2024-03-06T13:42:38;24.38;;;12.70;;
84523;SDS011;74765;44.538;18.668;2024-03-06T13:45:05;23.20;;;12.70;;
84523;SDS011;74765;44.538;18.668;2024-03-06T13:47:41;20.50;;;12.10;;
84523;SDS011;74765;44.538;18.668;2024-03-06T13:50:11;19.38;;;12.68;;
84523;SDS011;74765;44.538;18.668;2024-03-06T13:52:38;24.08;;;13.10;;
84523;SDS011;74765;44.538;18.668;2024-03-06T13:55:04;21.92;;;11.85;;
84523;SDS011;74765;44.538;18.668;2024-03-06T13:57:37;26.73;;;14.98;;
84523;SDS011;74765;44.538;18.668;2024-03-06T14:00:04;21.58;;;12.68;;
84523;SDS011;74765;44.538;18.668;2024-03-06T14:02:39;24.83;;;14.10;;
84523;SDS011;74765;44.538;18.668;2024-03-06T14:05:05;26.33;;;13.57;;
84523;SDS011;74765;44.538;18.668;2024-03-06T14:07:33;31.23;;;14.55;;
84523;SDS011;74765;44.538;18.668;2024-03-06T14:09:59;29.73;;;14.07;;
84523;SDS011;74765;44.538;18.668;2024-03-06T14:12:25;26.75;;;14.40;;
84523;SDS011;74765;44.538;18.668;2024-03-06T14:14:51;37.33;;;15.52;;
84523;SDS011;74765;44.538;18.668;2024-03-06T14:17:17;22.17;;;12.05;;
84523;SDS011;74765;44.538;18.668;2024-03-06T14:19:42;20.20;;;11.77;;
84523;SDS011;74765;44.538;18.668;2024-03-06T14:22:10;27.00;;;11.27;;
84523;SDS011;74765;44.538;18.668;2024-03-06T14:24:36;23.40;;;10.75;;
84523;SDS011;74765;44.538;18.668;2024-03-06T14:27:03;21.17;;;12.60;;
84523;SDS011;74765;44.538;18.668;2024-03-06T14:29:29;22.42;;;12.10;;
84523;SDS011;74765;44.538;18.668;2024-03-06T14:31:55;27.45;;;13.38;;